Time;durP1;ratioP1;P1;durP2;ratioP2;P2;SDS_P1;SDS_P2;PMS_P1;PMS_P2;Temp;Humidity;BMP_temperature;BMP_pressure;BME280_temperature;BME280_humidity;BME280_pressure;Samples;Min_cycle;Max_cycle;Signal;HPM_P1;HPM_P2
2022/09/15 00:01:34;;;;;;;0.10;0.10;;;;;;;;;;1898372;75;26248;-44
2022/09/15 00:04:02;;;;;;;0.08;0.08;;;;;;;;;;1899158;75;26307;-43
2022/09/15 00:06:29;;;;;;;0.20;0.20;;;;;;;;;;1899349;75;26300;-38
2022/09/15 00:08:57;;;;;;;0.03;0.03;;;;;;;;;;1891488;75;26269;-38
2022/09/15 00:11:26;;;;;;;0.10;0.10;;;;;;;;;;1900106;75;26246;-40
2022/09/15 00:13:54;;;;;;;0.10;0.10;;;;;;;;;;1906488;75;26753;-39
2022/09/15 00:16:22;;;;;;;0.15;0.15;;;;;;;;;;1902330;75;26382;-39
2022/09/15 00:18:50;;;;;;;0.20;0.20;;;;;;;;;;1890347;74;26316;-39
2022/09/15 00:21:19;;;;;;;0.20;0.20;;;;;;;;;;1901268;75;26731;-38
2022/09/15 00:23:47;;;;;;;0.23;0.23;;;;;;;;;;1895348;75;27233;-43
2022/09/15 00:26:15;;;;;;;0.10;0.10;;;;;;;;;;1889587;75;26243;-38
2022/09/15 00:28:43;;;;;;;0.17;0.17;;;;;;;;;;1887236;75;26247;-40
2022/09/15 00:31:12;;;;;;;0.20;0.20;;;;;;;;;;1886057;75;27471;-38
2022/09/15 00:33:39;;;;;;;0.20;0.20;;;;;;;;;;1881886;75;26231;-40
2022/09/15 00:36:08;;;;;;;0.20;0.20;;;;;;;;;;1880091;74;26750;-41
2022/09/15 00:38:36;;;;;;;0.10;0.10;;;;;;;;;;1898663;75;26251;-38
2022/09/15 00:41:04;;;;;;;0.20;0.20;;;;;;;;;;1850829;77;26238;-41
2022/09/15 00:43:42;;;;;;;0.20;0.20;;;;;;;;;;1885386;75;26235;-46
2022/09/15 00:46:10;;;;;;;0.13;0.13;;;;;;;;;;1886489;75;26817;-38
2022/09/15 00:48:39;;;;;;;0.37;0.23;;;;;;;;;;1862494;75;26255;-42
2022/09/15 00:51:07;;;;;;;0.37;0.17;;;;;;;;;;1867078;75;26315;-38
2022/09/15 00:53:35;;;;;;;0.10;0.10;;;;;;;;;;1883279;74;26557;-38
2022/09/15 00:56:04;;;;;;;0.20;0.20;;;;;;;;;;1891190;75;26231;-38
2022/09/15 00:58:33;;;;;;;0.20;0.20;;;;;;;;;;1897178;75;26328;-39
2022/09/15 01:01:01;;;;;;;0.10;0.10;;;;;;;;;;1870008;75;26304;-40
2022/09/15 01:03:30;;;;;;;0.10;0.10;;;;;;;;;;1871595;75;26317;-38
2022/09/15 01:05:59;;;;;;;0.30;0.30;;;;;;;;;;1869782;75;26242;-40
2022/09/15 01:08:28;;;;;;;0.85;0.25;;;;;;;;;;1871659;75;26427;-40
2022/09/15 01:10:56;;;;;;;0.20;0.10;;;;;;;;;;1839311;77;26250;-39
2022/09/15 01:13:23;;;;;;;0.10;0.10;;;;;;;;;;1849924;77;26336;-42
2022/09/15 01:15:58;;;;;;;0.10;0.10;;;;;;;;;;1851284;77;26271;-39
2022/09/15 01:18:30;;;;;;;0.20;0.20;;;;;;;;;;1838136;76;26294;-38
2022/09/15 01:21:08;;;;;;;0.10;0.10;;;;;;;;;;1837501;77;26239;-46
2022/09/15 01:23:52;;;;;;;0.10;0.10;;;;;;;;;;1827628;77;26354;-42
2022/09/15 01:26:21;;;;;;;0.10;0.10;;;;;;;;;;1829621;77;26769;-40
2022/09/15 01:28:49;;;;;;;0.20;0.20;;;;;;;;;;1849497;76;26947;-40
2022/09/15 01:31:21;;;;;;;0.10;0.10;;;;;;;;;;1830253;76;26764;-38
2022/09/15 01:33:50;;;;;;;0.10;0.10;;;;;;;;;;1836286;77;26324;-40
2022/09/15 01:36:19;;;;;;;0.00;0.00;;;;;;;;;;1837009;76;26298;-38
2022/09/15 01:38:54;;;;;;;0.10;0.10;;;;;;;;;;1835328;76;26249;-40
2022/09/15 01:41:29;;;;;;;0.10;0.10;;;;;;;;;;1861575;77;26358;-38
2022/09/15 01:44:00;;;;;;;0.30;0.13;;;;;;;;;;1885876;74;26371;-47
2022/09/15 01:46:29;;;;;;;0.10;0.10;;;;;;;;;;1888086;75;26244;-43
2022/09/15 01:48:57;;;;;;;0.10;0.10;;;;;;;;;;1889808;75;26238;-40
2022/09/15 01:51:26;;;;;;;0.75;0.20;;;;;;;;;;1896289;75;26671;-39
2022/09/15 01:53:54;;;;;;;1.07;0.10;;;;;;;;;;1873438;75;26249;-42
2022/09/15 01:56:21;;;;;;;0.10;0.10;;;;;;;;;;1882928;75;26231;-38
2022/09/15 01:58:50;;;;;;;0.08;0.08;;;;;;;;;;1869682;75;26266;-39
2022/09/15 02:01:26;;;;;;;0.20;0.20;;;;;;;;;;1881971;75;26320;-38
2022/09/15 02:03:55;;;;;;;0.10;0.10;;;;;;;;;;1884376;75;26386;-41
2022/09/15 02:06:23;;;;;;;0.28;0.28;;;;;;;;;;1883234;75;26372;-38
2022/09/15 02:08:52;;;;;;;0.10;0.10;;;;;;;;;;1889724;75;26317;-38
2022/09/15 02:11:23;;;;;;;0.10;0.10;;;;;;;;;;1876266;75;26312;-40
2022/09/15 02:14:08;;;;;;;0.10;0.10;;;;;;;;;;1892318;75;26315;-38
2022/09/15 02:16:34;;;;;;;0.10;0.10;;;;;;;;;;1896872;75;26220;-39
2022/09/15 02:19:18;;;;;;;0.20;0.20;;;;;;;;;;1884908;75;26251;-37
2022/09/15 02:21:52;;;;;;;0.10;0.10;;;;;;;;;;1891517;75;26306;-41
2022/09/15 02:24:20;;;;;;;0.10;0.10;;;;;;;;;;1881047;75;26728;-39
2022/09/15 02:26:49;;;;;;;0.10;0.10;;;;;;;;;;1881501;75;27481;-43
2022/09/15 02:29:18;;;;;;;0.10;0.10;;;;;;;;;;1883917;75;26290;-40
2022/09/15 02:31:46;;;;;;;0.30;0.30;;;;;;;;;;1885716;75;26309;-42
2022/09/15 02:34:18;;;;;;;0.10;0.10;;;;;;;;;;1888267;75;26227;-39
2022/09/15 02:36:46;;;;;;;0.10;0.10;;;;;;;;;;1876854;75;25682;-42
2022/09/15 02:39:15;;;;;;;0.20;0.20;;;;;;;;;;1850473;76;26271;-41
2022/09/15 02:41:43;;;;;;;0.10;0.10;;;;;;;;;;1870250;75;26257;-44
2022/09/15 02:44:10;;;;;;;0.10;0.10;;;;;;;;;;1867817;76;26375;-39
2022/09/15 02:46:38;;;;;;;0.10;0.10;;;;;;;;;;1843485;76;26334;-38
2022/09/15 02:49:06;;;;;;;0.33;0.10;;;;;;;;;;1865488;75;26713;-39
2022/09/15 02:51:33;;;;;;;0.00;0.00;;;;;;;;;;1853495;76;26260;-38
2022/09/15 02:54:01;;;;;;;0.10;0.10;;;;;;;;;;1850567;75;26719;-40
2022/09/15 02:56:28;;;;;;;0.10;0.10;;;;;;;;;;1868931;76;26234;-38
2022/09/15 02:58:55;;;;;;;0.20;0.20;;;;;;;;;;1867979;76;27356;-40
2022/09/15 03:01:24;;;;;;;0.10;0.10;;;;;;;;;;1868147;76;26788;-40
2022/09/15 03:03:51;;;;;;;0.10;0.10;;;;;;;;;;1848904;76;26262;-40
2022/09/15 03:06:20;;;;;;;0.13;0.13;;;;;;;;;;1869633;75;26230;-37
2022/09/15 03:08:55;;;;;;;0.10;0.10;;;;;;;;;;1867563;76;26270;-41
2022/09/15 03:11:23;;;;;;;0.82;0.10;;;;;;;;;;1869923;76;26242;-37
2022/09/15 03:14:00;;;;;;;0.00;0.00;;;;;;;;;;1870145;75;26618;-45
2022/09/15 03:16:29;;;;;;;0.20;0.20;;;;;;;;;;1867182;75;26352;-39
2022/09/15 03:19:01;;;;;;;0.10;0.10;;;;;;;;;;1863907;76;26266;-40
2022/09/15 03:21:28;;;;;;;0.10;0.10;;;;;;;;;;1865991;75;26940;-40
2022/09/15 03:23:56;;;;;;;0.20;0.20;;;;;;;;;;1863864;76;26777;-41
2022/09/15 03:26:23;;;;;;;0.10;0.10;;;;;;;;;;1867133;76;26312;-37
2022/09/15 03:28:51;;;;;;;0.10;0.10;;;;;;;;;;1869676;75;26508;-44
2022/09/15 03:31:18;;;;;;;0.10;0.10;;;;;;;;;;1863920;75;26267;-38
2022/09/15 03:33:46;;;;;;;0.10;0.10;;;;;;;;;;1863589;75;26316;-40
2022/09/15 03:36:13;;;;;;;0.10;0.10;;;;;;;;;;1862991;75;26266;-39
2022/09/15 03:38:40;;;;;;;0.10;0.10;;;;;;;;;;1887320;75;26311;-38
2022/09/15 03:41:09;;;;;;;0.10;0.10;;;;;;;;;;1901109;75;26682;-40
2022/09/15 03:43:37;;;;;;;1.17;0.10;;;;;;;;;;1900149;75;26864;-39
2022/09/15 03:46:05;;;;;;;0.20;0.20;;;;;;;;;;1874784;75;26319;-38
2022/09/15 03:48:34;;;;;;;0.10;0.10;;;;;;;;;;1882747;75;26705;-41
2022/09/15 03:51:02;;;;;;;0.15;0.15;;;;;;;;;;1883176;75;27346;-40
2022/09/15 03:53:32;;;;;;;0.20;0.20;;;;;;;;;;1888326;75;26825;-40
2022/09/15 03:56:12;;;;;;;0.15;0.15;;;;;;;;;;1883450;75;26851;-42
2022/09/15 03:58:40;;;;;;;0.10;0.10;;;;;;;;;;1898385;75;27300;-39
2022/09/15 04:01:08;;;;;;;0.15;0.15;;;;;;;;;;1898870;75;26603;-41
2022/09/15 04:03:35;;;;;;;0.20;0.20;;;;;;;;;;1884929;75;26328;-38
2022/09/15 04:06:02;;;;;;;0.03;0.03;;;;;;;;;;1891342;75;26263;-39
2022/09/15 04:08:30;;;;;;;0.13;0.13;;;;;;;;;;1872595;75;26641;-38
2022/09/15 04:10:59;;;;;;;0.15;0.15;;;;;;;;;;1872217;75;26281;-39
2022/09/15 04:13:26;;;;;;;0.10;0.10;;;;;;;;;;1880709;75;26286;-41
2022/09/15 04:16:04;;;;;;;0.98;0.15;;;;;;;;;;1875194;75;26762;-40
2022/09/15 04:18:32;;;;;;;0.30;0.20;;;;;;;;;;1877763;75;26243;-42
2022/09/15 04:20:59;;;;;;;0.20;0.20;;;;;;;;;;1897825;75;26239;-38
2022/09/15 04:23:27;;;;;;;0.17;0.17;;;;;;;;;;1893787;75;26337;-38
2022/09/15 04:25:55;;;;;;;0.10;0.10;;;;;;;;;;1889073;75;26219;-40
2022/09/15 04:28:24;;;;;;;0.10;0.10;;;;;;;;;;1899716;75;26247;-40
2022/09/15 04:30:52;;;;;;;0.33;0.30;;;;;;;;;;1876896;75;26634;-46
2022/09/15 04:33:19;;;;;;;0.20;0.20;;;;;;;;;;1875312;75;26257;-41
2022/09/15 04:35:47;;;;;;;1.02;0.15;;;;;;;;;;1879552;75;26505;-38
2022/09/15 04:38:15;;;;;;;0.03;0.03;;;;;;;;;;1894950;75;26372;-39
2022/09/15 04:40:42;;;;;;;0.10;0.10;;;;;;;;;;1892878;75;26731;-40
2022/09/15 04:43:09;;;;;;;0.10;0.10;;;;;;;;;;1899793;75;27433;-38
2022/09/15 04:45:37;;;;;;;0.35;0.20;;;;;;;;;;1886124;75;26274;-42
2022/09/15 04:48:04;;;;;;;0.10;0.10;;;;;;;;;;1903808;75;26505;-40
2022/09/15 04:50:32;;;;;;;1.47;0.20;;;;;;;;;;1903439;75;26308;-40
2022/09/15 04:52:59;;;;;;;0.15;0.15;;;;;;;;;;1886010;75;26317;-38
2022/09/15 04:55:27;;;;;;;0.10;0.10;;;;;;;;;;1906061;75;26312;-46
2022/09/15 04:57:54;;;;;;;0.10;0.10;;;;;;;;;;1892995;75;26242;-42
2022/09/15 05:00:22;;;;;;;0.20;0.20;;;;;;;;;;1908558;75;26282;-42
2022/09/15 05:02:49;;;;;;;0.10;0.10;;;;;;;;;;1902177;75;26281;-42
2022/09/15 05:05:16;;;;;;;0.20;0.20;;;;;;;;;;1896478;75;27312;-43
2022/09/15 05:07:43;;;;;;;0.20;0.20;;;;;;;;;;1893350;75;26651;-42
2022/09/15 05:10:11;;;;;;;0.20;0.20;;;;;;;;;;1894158;75;27534;-41
2022/09/15 05:12:39;;;;;;;0.20;0.20;;;;;;;;;;1885960;75;26225;-39
2022/09/15 05:15:07;;;;;;;0.30;0.30;;;;;;;;;;1887081;75;26328;-46
2022/09/15 05:17:34;;;;;;;1.60;0.35;;;;;;;;;;1892228;75;26298;-42
2022/09/15 05:20:02;;;;;;;0.20;0.10;;;;;;;;;;1891406;75;26247;-39
2022/09/15 05:22:30;;;;;;;1.98;0.30;;;;;;;;;;1893222;75;26828;-38
2022/09/15 05:24:57;;;;;;;0.25;0.20;;;;;;;;;;1889652;75;26243;-39
2022/09/15 05:27:25;;;;;;;1.57;0.33;;;;;;;;;;1897262;75;26330;-38
2022/09/15 05:29:52;;;;;;;3.25;0.30;;;;;;;;;;1886235;75;26238;-41
2022/09/15 05:32:19;;;;;;;1.15;0.20;;;;;;;;;;1876632;75;26238;-42
2022/09/15 05:34:46;;;;;;;1.37;0.30;;;;;;;;;;1874926;75;25628;-40
2022/09/15 05:37:14;;;;;;;0.50;0.23;;;;;;;;;;1883224;75;26675;-39
2022/09/15 05:39:41;;;;;;;1.17;0.40;;;;;;;;;;1911542;75;26734;-38
2022/09/15 05:42:09;;;;;;;0.33;0.30;;;;;;;;;;1881745;75;26321;-39
2022/09/15 05:44:36;;;;;;;0.40;0.25;;;;;;;;;;1902836;75;26392;-39
2022/09/15 05:47:03;;;;;;;0.20;0.20;;;;;;;;;;1887466;75;26560;-39
2022/09/15 05:49:31;;;;;;;0.45;0.33;;;;;;;;;;1885498;75;26235;-38
2022/09/15 05:51:59;;;;;;;0.40;0.40;;;;;;;;;;1867990;75;27774;-42
2022/09/15 05:54:26;;;;;;;1.50;0.40;;;;;;;;;;1896858;75;26865;-39
2022/09/15 05:56:53;;;;;;;0.50;0.30;;;;;;;;;;1881988;75;27165;-40
2022/09/15 05:59:20;;;;;;;1.80;0.33;;;;;;;;;;1880594;75;26785;-43
2022/09/15 06:01:48;;;;;;;0.72;0.55;;;;;;;;;;1888581;75;26355;-43
2022/09/15 06:04:16;;;;;;;3.60;0.70;;;;;;;;;;1895747;75;26254;-44
2022/09/15 06:06:44;;;;;;;0.45;0.28;;;;;;;;;;1882474;75;26275;-42
2022/09/15 06:09:11;;;;;;;0.60;0.30;;;;;;;;;;1879433;75;26224;-38
2022/09/15 06:11:38;;;;;;;0.42;0.40;;;;;;;;;;1883650;75;26320;-41
2022/09/15 06:14:05;;;;;;;3.62;0.62;;;;;;;;;;1887906;75;26829;-37
2022/09/15 06:16:34;;;;;;;2.85;0.42;;;;;;;;;;1886719;75;26259;-38
2022/09/15 06:19:02;;;;;;;1.07;0.55;;;;;;;;;;1888664;75;26691;-39
2022/09/15 06:21:30;;;;;;;0.72;0.57;;;;;;;;;;1890703;75;26279;-42
2022/09/15 06:24:06;;;;;;;2.17;0.50;;;;;;;;;;1888396;75;26537;-38
2022/09/15 06:26:30;;;;;;;5.87;0.60;;;;;;;;;;1894725;75;26343;-40
2022/09/15 06:28:59;;;;;;;1.37;0.50;;;;;;;;;;1881754;75;26220;-38
2022/09/15 06:31:27;;;;;;;3.02;0.45;;;;;;;;;;1892881;75;26247;-41
2022/09/15 06:33:56;;;;;;;1.87;0.50;;;;;;;;;;1887316;75;26903;-43
2022/09/15 06:36:25;;;;;;;2.87;0.60;;;;;;;;;;1893838;75;25829;-38
2022/09/15 06:38:53;;;;;;;2.35;0.68;;;;;;;;;;1896828;75;26494;-42
2022/09/15 06:41:20;;;;;;;1.50;0.40;;;;;;;;;;1901174;75;26231;-43
2022/09/15 06:43:48;;;;;;;0.93;0.37;;;;;;;;;;1904817;75;26352;-53
2022/09/15 06:46:16;;;;;;;2.75;0.55;;;;;;;;;;1907837;75;26336;-55
2022/09/15 06:48:44;;;;;;;0.68;0.60;;;;;;;;;;1910447;75;26261;-47
2022/09/15 06:51:12;;;;;;;1.57;0.47;;;;;;;;;;1897763;75;26242;-54
2022/09/15 06:53:39;;;;;;;4.10;0.70;;;;;;;;;;1906196;75;26718;-66
2022/09/15 07:06:16;;;;;;;0.62;0.62;;;;;;;;;;1891004;74;28841;-49
2022/09/15 07:08:45;;;;;;;1.35;0.57;;;;;;;;;;1858659;76;26267;-54
2022/09/15 07:11:13;;;;;;;2.33;0.60;;;;;;;;;;1857520;76;26259;-62
2022/09/15 07:13:40;;;;;;;0.55;0.45;;;;;;;;;;1864406;75;26249;-61
2022/09/15 07:16:09;;;;;;;2.40;0.78;;;;;;;;;;1861272;75;26529;-59
2022/09/15 07:18:37;;;;;;;0.50;0.50;;;;;;;;;;1868843;76;26262;-64
2022/09/15 07:21:08;;;;;;;0.50;0.50;;;;;;;;;;1851114;76;27207;-60
2022/09/15 07:23:36;;;;;;;0.20;0.20;;;;;;;;;;1854132;76;27546;-58
2022/09/15 07:26:04;;;;;;;0.62;0.40;;;;;;;;;;1869105;76;26266;-61
2022/09/15 07:28:32;;;;;;;0.60;0.50;;;;;;;;;;1848253;76;26244;-59
2022/09/15 07:30:59;;;;;;;2.75;0.45;;;;;;;;;;1869836;75;26317;-59
2022/09/15 07:33:27;;;;;;;0.90;0.42;;;;;;;;;;1864940;75;26711;-59
2022/09/15 07:35:54;;;;;;;0.33;0.33;;;;;;;;;;1854702;76;26376;-55
2022/09/15 07:38:22;;;;;;;0.40;0.40;;;;;;;;;;1852206;75;26389;-62
2022/09/15 07:40:49;;;;;;;1.85;0.40;;;;;;;;;;1870246;76;26240;-52
2022/09/15 07:43:17;;;;;;;1.00;0.30;;;;;;;;;;1865060;75;26270;-50
2022/09/15 07:45:44;;;;;;;1.05;0.30;;;;;;;;;;1858252;75;26787;-58
2022/09/15 07:48:11;;;;;;;0.50;0.50;;;;;;;;;;1859427;76;26298;-60
2022/09/15 07:50:39;;;;;;;0.30;0.30;;;;;;;;;;1855671;75;26274;-53
2022/09/15 07:53:06;;;;;;;0.33;0.33;;;;;;;;;;1853563;76;26227;-52
2022/09/15 07:55:33;;;;;;;1.05;0.40;;;;;;;;;;1856284;75;26246;-59
2022/09/15 07:58:01;;;;;;;0.62;0.40;;;;;;;;;;1853480;76;26343;-61
2022/09/15 08:00:28;;;;;;;2.83;0.40;;;;;;;;;;1849060;76;26293;-52
2022/09/15 08:02:55;;;;;;;2.05;0.40;;;;;;;;;;1853986;76;26267;-54
2022/09/15 08:05:27;;;;;;;5.42;0.60;;;;;;;;;;1851840;76;27653;-51
2022/09/15 08:07:55;;;;;;;2.65;0.60;;;;;;;;;;1863974;76;26293;-54
2022/09/15 08:10:27;;;;;;;3.00;0.60;;;;;;;;;;1854905;76;26253;-55
2022/09/15 08:12:52;;;;;;;2.67;0.50;;;;;;;;;;1848838;76;26276;-52
2022/09/15 08:15:20;;;;;;;0.88;0.40;;;;;;;;;;1816209;78;26680;-54
2022/09/15 08:17:47;;;;;;;0.82;0.50;;;;;;;;;;1809157;79;26259;-59
2022/09/15 08:20:15;;;;;;;2.85;0.42;;;;;;;;;;1813923;78;26275;-56
2022/09/15 08:22:44;;;;;;;2.58;0.33;;;;;;;;;;1853399;76;26347;-56
2022/09/15 08:25:12;;;;;;;2.20;0.40;;;;;;;;;;1860295;75;26298;-53
2022/09/15 08:27:39;;;;;;;2.85;0.57;;;;;;;;;;1854998;76;27417;-60
2022/09/15 08:30:07;;;;;;;1.75;0.40;;;;;;;;;;1866542;76;26259;-61
2022/09/15 08:32:34;;;;;;;0.50;0.40;;;;;;;;;;1851544;76;26339;-60
2022/09/15 08:35:01;;;;;;;1.85;0.50;;;;;;;;;;1851169;75;25810;-55
2022/09/15 08:37:30;;;;;;;0.42;0.42;;;;;;;;;;1851852;75;26230;-52
2022/09/15 08:39:57;;;;;;;0.47;0.47;;;;;;;;;;1855029;75;26351;-52
2022/09/15 08:42:27;;;;;;;0.75;0.30;;;;;;;;;;1851845;75;26316;-55
2022/09/15 08:44:58;;;;;;;1.52;0.40;;;;;;;;;;1849969;76;26368;-54
2022/09/15 08:47:30;;;;;;;1.67;0.33;;;;;;;;;;1874755;76;27447;-57
2022/09/15 08:50:15;;;;;;;0.20;0.20;;;;;;;;;;1854808;75;26269;-53
2022/09/15 08:52:47;;;;;;;0.30;0.30;;;;;;;;;;1858039;76;26782;-59
2022/09/15 08:55:19;;;;;;;1.02;0.50;;;;;;;;;;1856602;75;26326;-58
2022/09/15 08:57:46;;;;;;;0.40;0.40;;;;;;;;;;1858806;75;26270;-60
2022/09/15 09:00:15;;;;;;;0.55;0.30;;;;;;;;;;1850110;76;26255;-54
2022/09/15 09:02:53;;;;;;;0.57;0.20;;;;;;;;;;1855432;76;26338;-62
2022/09/15 09:05:23;;;;;;;0.20;0.20;;;;;;;;;;1850952;76;26421;-55
2022/09/15 09:08:09;;;;;;;0.53;0.35;;;;;;;;;;1861147;76;26408;-51
2022/09/15 09:10:41;;;;;;;0.40;0.20;;;;;;;;;;1858249;76;26309;-50
2022/09/15 09:13:09;;;;;;;0.65;0.20;;;;;;;;;;1856620;76;26246;-60
2022/09/15 09:15:41;;;;;;;0.45;0.30;;;;;;;;;;1857240;76;26340;-54
2022/09/15 09:18:13;;;;;;;2.80;0.20;;;;;;;;;;1859119;76;26251;-56
2022/09/15 09:20:58;;;;;;;0.20;0.20;;;;;;;;;;1875359;76;26247;-56
2022/09/15 09:23:28;;;;;;;1.17;0.20;;;;;;;;;;1856333;76;26253;-57
2022/09/15 09:25:56;;;;;;;2.22;0.40;;;;;;;;;;1863922;74;26297;-54
2022/09/15 09:28:25;;;;;;;0.20;0.20;;;;;;;;;;1871631;74;26301;-52
2022/09/15 09:30:52;;;;;;;0.70;0.30;;;;;;;;;;1865754;74;26244;-52
2022/09/15 09:33:21;;;;;;;0.37;0.23;;;;;;;;;;1861762;76;26243;-54
2022/09/15 09:35:52;;;;;;;0.42;0.30;;;;;;;;;;1861329;76;26258;-51
2022/09/15 09:38:27;;;;;;;0.20;0.20;;;;;;;;;;1856266;76;26286;-58
2022/09/15 09:40:55;;;;;;;0.10;0.10;;;;;;;;;;1866162;74;26231;-51
2022/09/15 09:43:23;;;;;;;0.20;0.20;;;;;;;;;;1869652;74;26711;-60
2022/09/15 09:45:51;;;;;;;0.10;0.10;;;;;;;;;;1861040;76;26312;-56
2022/09/15 09:48:20;;;;;;;0.20;0.20;;;;;;;;;;1866218;76;27252;-57
2022/09/15 09:50:49;;;;;;;0.20;0.20;;;;;;;;;;1867354;74;27472;-53
2022/09/15 09:53:19;;;;;;;0.28;0.20;;;;;;;;;;1866108;76;26709;-53
2022/09/15 09:55:46;;;;;;;1.25;0.20;;;;;;;;;;1868160;76;26274;-56
2022/09/15 09:58:15;;;;;;;0.20;0.20;;;;;;;;;;1861276;76;26267;-53
2022/09/15 10:00:42;;;;;;;0.10;0.10;;;;;;;;;;1857200;76;26254;-61
2022/09/15 10:03:17;;;;;;;0.20;0.20;;;;;;;;;;1862803;76;26266;-55
2022/09/15 10:05:45;;;;;;;0.42;0.20;;;;;;;;;;1871121;75;26376;-56
2022/09/15 10:08:19;;;;;;;0.20;0.20;;;;;;;;;;1880704;75;26307;-51
2022/09/15 10:10:48;;;;;;;0.10;0.10;;;;;;;;;;1878435;75;26327;-59
2022/09/15 10:13:16;;;;;;;1.50;0.40;;;;;;;;;;1867619;75;26242;-55
2022/09/15 10:15:43;;;;;;;0.75;0.15;;;;;;;;;;1886713;75;26249;-52
2022/09/15 10:18:12;;;;;;;0.25;0.25;;;;;;;;;;1887771;74;26294;-47
2022/09/15 10:20:40;;;;;;;0.78;0.20;;;;;;;;;;1851145;75;26319;-48
2022/09/15 10:23:23;;;;;;;0.10;0.10;;;;;;;;;;1877855;75;26257;-48
2022/09/15 10:25:47;;;;;;;0.15;0.15;;;;;;;;;;1890155;75;26392;-54
2022/09/15 10:28:16;;;;;;;0.10;0.10;;;;;;;;;;1884514;75;26912;-52
2022/09/15 10:30:57;;;;;;;0.10;0.10;;;;;;;;;;1872551;75;26314;-47
2022/09/15 10:33:25;;;;;;;0.42;0.20;;;;;;;;;;1892301;75;26277;-46
2022/09/15 10:35:54;;;;;;;0.15;0.15;;;;;;;;;;1883249;75;26256;-53
2022/09/15 10:38:25;;;;;;;0.10;0.10;;;;;;;;;;1867707;75;26744;-54
2022/09/15 10:40:57;;;;;;;0.23;0.15;;;;;;;;;;1873003;75;26242;-49
2022/09/15 10:43:26;;;;;;;0.20;0.20;;;;;;;;;;1877250;75;26732;-51
2022/09/15 10:46:00;;;;;;;0.10;0.10;;;;;;;;;;1876239;75;26771;-52
2022/09/15 10:48:29;;;;;;;2.02;0.33;;;;;;;;;;1870535;75;26276;-51
2022/09/15 10:51:15;;;;;;;0.20;0.20;;;;;;;;;;1878028;75;26329;-49
2022/09/15 10:53:44;;;;;;;0.45;0.30;;;;;;;;;;1880635;74;26280;-46
2022/09/15 10:56:19;;;;;;;0.85;0.25;;;;;;;;;;1877347;74;26321;-46
2022/09/15 10:58:59;;;;;;;1.95;0.20;;;;;;;;;;1874847;74;26345;-49
2022/09/15 11:01:30;;;;;;;0.20;0.20;;;;;;;;;;1887036;75;26424;-46
2022/09/15 11:04:05;;;;;;;0.17;0.17;;;;;;;;;;1828419;78;26307;-46
2022/09/15 11:06:37;;;;;;;0.30;0.30;;;;;;;;;;1825984;78;27865;-52
2022/09/15 11:09:15;;;;;;;0.57;0.20;;;;;;;;;;1808306;78;26307;-49
2022/09/15 11:11:47;;;;;;;1.25;0.33;;;;;;;;;;1832916;78;26277;-45
2022/09/15 11:14:16;;;;;;;0.30;0.30;;;;;;;;;;1837055;77;26272;-48
2022/09/15 11:17:00;;;;;;;0.30;0.30;;;;;;;;;;1830238;77;26320;-55
2022/09/15 11:19:32;;;;;;;0.30;0.30;;;;;;;;;;1837737;78;26193;-52
2022/09/15 11:22:10;;;;;;;0.28;0.28;;;;;;;;;;1813921;78;26261;-49
2022/09/15 11:24:47;;;;;;;0.20;0.20;;;;;;;;;;1830771;77;26193;-46
2022/09/15 11:27:22;;;;;;;0.98;0.25;;;;;;;;;;1813215;78;26748;-46
2022/09/15 11:30:03;;;;;;;0.20;0.20;;;;;;;;;;1824313;78;26261;-49
2022/09/15 11:32:35;;;;;;;0.20;0.20;;;;;;;;;;1808715;78;26972;-45
2022/09/15 11:35:25;;;;;;;0.20;0.20;;;;;;;;;;1820247;78;26268;-45
2022/09/15 11:37:53;;;;;;;0.40;0.20;;;;;;;;;;1812728;78;26310;-46
2022/09/15 11:40:27;;;;;;;0.30;0.30;;;;;;;;;;1813499;78;26330;-45
2022/09/15 11:42:56;;;;;;;2.05;0.20;;;;;;;;;;1844136;77;26254;-50
2022/09/15 11:45:25;;;;;;;2.22;0.20;;;;;;;;;;1823291;78;25395;-45
2022/09/15 11:47:57;;;;;;;0.93;0.25;;;;;;;;;;1811099;78;26795;-54
2022/09/15 11:50:26;;;;;;;1.45;0.23;;;;;;;;;;1811115;78;26248;-46
2022/09/15 11:53:11;;;;;;;0.30;0.20;;;;;;;;;;1816603;78;26275;-51
2022/09/15 11:55:40;;;;;;;0.53;0.33;;;;;;;;;;1795084;78;26267;-48
2022/09/15 11:58:26;;;;;;;2.90;0.30;;;;;;;;;;1822462;78;26269;-45
2022/09/15 12:01:00;;;;;;;1.65;0.37;;;;;;;;;;1819814;78;26790;-51
2022/09/15 12:03:32;;;;;;;1.85;0.30;;;;;;;;;;1822237;78;26281;-50
2022/09/15 12:06:01;;;;;;;0.28;0.28;;;;;;;;;;1824435;78;26341;-47
2022/09/15 12:08:32;;;;;;;0.45;0.25;;;;;;;;;;1817443;78;26305;-50
2022/09/15 12:11:01;;;;;;;1.50;0.30;;;;;;;;;;1867804;76;26699;-45
2022/09/15 12:13:29;;;;;;;0.42;0.20;;;;;;;;;;1858532;75;26817;-52
2022/09/15 12:15:56;;;;;;;0.30;0.20;;;;;;;;;;1870927;76;26352;-45
2022/09/15 12:18:28;;;;;;;0.20;0.20;;;;;;;;;;1861955;76;26264;-49
2022/09/15 12:21:06;;;;;;;0.20;0.20;;;;;;;;;;1875799;76;26227;-49
2022/09/15 12:23:38;;;;;;;0.20;0.20;;;;;;;;;;1869415;76;26453;-50
2022/09/15 12:26:07;;;;;;;2.40;0.20;;;;;;;;;;1869267;76;26266;-45
2022/09/15 12:28:35;;;;;;;0.28;0.10;;;;;;;;;;1861079;76;26277;-49
2022/09/15 12:31:13;;;;;;;4.45;0.37;;;;;;;;;;1860417;76;26187;-50
2022/09/15 12:33:48;;;;;;;0.75;0.20;;;;;;;;;;1875759;76;26235;-45
2022/09/15 12:36:32;;;;;;;1.00;0.20;;;;;;;;;;1848884;76;26325;-48
2022/09/15 12:39:00;;;;;;;2.92;0.28;;;;;;;;;;1871621;76;26231;-52
2022/09/15 12:41:28;;;;;;;0.20;0.20;;;;;;;;;;1870270;76;26938;-49
2022/09/15 12:43:56;;;;;;;0.20;0.20;;;;;;;;;;1849964;76;26239;-49
2022/09/15 12:46:25;;;;;;;0.20;0.20;;;;;;;;;;1879375;76;26748;-47
2022/09/15 12:48:53;;;;;;;0.40;0.10;;;;;;;;;;1862799;76;26323;-49
2022/09/15 12:51:23;;;;;;;0.33;0.10;;;;;;;;;;1861688;76;26725;-52
2022/09/15 12:53:51;;;;;;;0.10;0.10;;;;;;;;;;1852679;76;26273;-47
2022/09/15 12:56:23;;;;;;;0.70;0.20;;;;;;;;;;1853465;76;26359;-45
2022/09/15 12:58:51;;;;;;;0.30;0.30;;;;;;;;;;1874642;75;27330;-49
2022/09/15 13:01:20;;;;;;;2.62;0.20;;;;;;;;;;1874162;76;26227;-48
2022/09/15 13:03:49;;;;;;;0.42;0.25;;;;;;;;;;1868036;76;26242;-47
2022/09/15 13:06:18;;;;;;;0.68;0.10;;;;;;;;;;1871614;76;26763;-46
2022/09/15 13:08:50;;;;;;;0.25;0.25;;;;;;;;;;1872139;75;27228;-54
2022/09/15 13:11:25;;;;;;;0.53;0.20;;;;;;;;;;1895455;74;26293;-62
2022/09/15 13:14:09;;;;;;;0.75;0.17;;;;;;;;;;1875721;75;26310;-50
2022/09/15 13:16:35;;;;;;;0.17;0.10;;;;;;;;;;1872564;75;26324;-46
2022/09/15 13:19:11;;;;;;;0.20;0.20;;;;;;;;;;1886942;75;26320;-49
2022/09/15 13:21:40;;;;;;;0.57;0.20;;;;;;;;;;1896049;75;26558;-46
2022/09/15 13:24:08;;;;;;;0.28;0.28;;;;;;;;;;1879230;75;26256;-55
2022/09/15 13:26:36;;;;;;;0.20;0.20;;;;;;;;;;1896017;75;26262;-49
2022/09/15 13:29:05;;;;;;;0.17;0.10;;;;;;;;;;1873516;75;26292;-51
2022/09/15 13:31:36;;;;;;;0.30;0.15;;;;;;;;;;1886146;74;26243;-48
2022/09/15 13:34:06;;;;;;;0.20;0.20;;;;;;;;;;1868574;74;26313;-45
2022/09/15 13:36:47;;;;;;;0.10;0.10;;;;;;;;;;1878665;75;26266;-52
2022/09/15 13:39:29;;;;;;;0.10;0.10;;;;;;;;;;1886296;75;26243;-46
2022/09/15 13:42:10;;;;;;;0.10;0.10;;;;;;;;;;1875971;75;26211;-47
2022/09/15 13:44:56;;;;;;;0.10;0.10;;;;;;;;;;1888727;74;26230;-50
2022/09/15 13:47:32;;;;;;;0.10;0.10;;;;;;;;;;1888331;75;26737;-50
2022/09/15 13:50:01;;;;;;;0.00;0.00;;;;;;;;;;1875083;75;26327;-45
2022/09/15 13:52:42;;;;;;;0.85;0.20;;;;;;;;;;1896051;75;26291;-49
2022/09/15 13:55:25;;;;;;;0.10;0.10;;;;;;;;;;1878274;75;26307;-50
2022/09/15 13:57:56;;;;;;;0.33;0.10;;;;;;;;;;1881146;75;26405;-45
2022/09/15 14:00:25;;;;;;;0.40;0.13;;;;;;;;;;1869136;75;26244;-52
2022/09/15 14:03:00;;;;;;;0.57;0.20;;;;;;;;;;1875942;75;26683;-52
2022/09/15 14:05:29;;;;;;;1.02;0.20;;;;;;;;;;1858017;75;26284;-48
2022/09/15 14:07:58;;;;;;;0.10;0.10;;;;;;;;;;1889351;75;26323;-50
2022/09/15 14:10:27;;;;;;;0.62;0.30;;;;;;;;;;1886314;75;26326;-49
2022/09/15 14:12:56;;;;;;;0.55;0.20;;;;;;;;;;1877983;75;26234;-49
2022/09/15 14:15:25;;;;;;;0.20;0.20;;;;;;;;;;1892575;75;26274;-52
2022/09/15 14:17:52;;;;;;;0.30;0.30;;;;;;;;;;1883035;75;26286;-51
2022/09/15 14:20:32;;;;;;;0.10;0.10;;;;;;;;;;1886720;75;26936;-46
2022/09/15 14:23:00;;;;;;;0.40;0.20;;;;;;;;;;1873562;75;26359;-47
2022/09/15 14:25:29;;;;;;;0.68;0.17;;;;;;;;;;1880896;75;26295;-52
2022/09/15 14:27:56;;;;;;;0.50;0.50;;;;;;;;;;1881258;75;26288;-47
2022/09/15 14:30:25;;;;;;;0.20;0.20;;;;;;;;;;1886247;75;26283;-45
2022/09/15 14:32:54;;;;;;;1.60;0.20;;;;;;;;;;1885566;74;26266;-51
2022/09/15 14:35:23;;;;;;;0.10;0.10;;;;;;;;;;1888358;75;26258;-44
2022/09/15 14:37:55;;;;;;;0.30;0.30;;;;;;;;;;1896251;75;26325;-50
2022/09/15 14:40:24;;;;;;;0.55;0.30;;;;;;;;;;1878030;75;26308;-45
2022/09/15 14:42:51;;;;;;;0.70;0.30;;;;;;;;;;1871437;74;26263;-47
2022/09/15 14:45:20;;;;;;;0.47;0.15;;;;;;;;;;1877593;74;26331;-50
2022/09/15 14:47:47;;;;;;;0.42;0.10;;;;;;;;;;1869957;75;26262;-47
2022/09/15 14:50:18;;;;;;;0.20;0.20;;;;;;;;;;1897341;74;26305;-46
2022/09/15 14:52:56;;;;;;;0.28;0.25;;;;;;;;;;1894948;75;26231;-49
2022/09/15 14:55:27;;;;;;;0.20;0.20;;;;;;;;;;1879205;75;26266;-45
2022/09/15 14:57:56;;;;;;;0.15;0.10;;;;;;;;;;1871704;74;26677;-48
2022/09/15 15:00:25;;;;;;;0.37;0.10;;;;;;;;;;1864511;74;26282;-50
2022/09/15 15:02:56;;;;;;;0.72;0.30;;;;;;;;;;1865237;75;26304;-53
2022/09/15 15:05:31;;;;;;;0.57;0.20;;;;;;;;;;1828005;77;26280;-53
2022/09/15 15:08:00;;;;;;;1.22;1.20;;;;;;;;;;1825835;78;26768;-53
2022/09/15 15:10:29;;;;;;;1.60;1.40;;;;;;;;;;1813231;78;27176;-46